createdAt,value
2019-02-25T00:01:20.183Z,18.32
2019-02-25T00:06:21.766Z,17.17
2019-02-25T00:08:53.042Z,15.80
2019-02-25T00:11:24.320Z,14.87
2019-02-25T00:13:55.738Z,19.25
2019-02-25T00:16:27.174Z,17.35
2019-02-25T00:18:58.460Z,20.72
2019-02-25T00:21:30.818Z,15.95
2019-02-25T00:24:02.370Z,19.42
2019-02-25T00:26:34.048Z,19.90
2019-02-25T00:29:05.554Z,17.40
2019-02-25T00:31:36.856Z,19.17
2019-02-25T00:34:08.168Z,21.70
2019-02-25T00:36:39.464Z,22.25
2019-02-25T00:39:10.815Z,20.20
2019-02-25T00:41:42.016Z,20.50
2019-02-25T00:44:13.714Z,20.25
2019-02-25T00:46:44.932Z,21.87
2019-02-25T00:49:16.243Z,23.98
2019-02-25T00:51:47.655Z,23.20
2019-02-25T00:54:19.028Z,20.37
2019-02-25T00:56:51.423Z,24.45
2019-02-25T00:59:22.733Z,30.25
2019-02-25T01:01:54.094Z,26.27
2019-02-25T01:04:25.540Z,25.97
2019-02-25T01:06:56.950Z,28.92
2019-02-25T01:09:28.312Z,24.63
2019-02-25T01:11:59.760Z,28.25
2019-02-25T01:14:31.211Z,24.90
2019-02-25T01:17:02.653Z,22.98
2019-02-25T01:19:34.061Z,22.35
2019-02-25T01:22:05.461Z,22.82
2019-02-25T01:24:36.783Z,21.82
2019-02-25T01:27:08.034Z,24.57
2019-02-25T01:29:39.413Z,23.40
2019-02-25T01:32:10.859Z,23.07
2019-02-25T01:34:42.250Z,23.98
2019-02-25T01:37:13.713Z,26.02
2019-02-25T01:39:45.244Z,26.93
2019-02-25T01:42:18.189Z,21.15
2019-02-25T01:44:49.539Z,25.60
2019-02-25T01:47:20.838Z,17.95
2019-02-25T01:49:52.135Z,23.25
2019-02-25T01:52:23.500Z,18.25
2019-02-25T01:54:54.743Z,20.55
2019-02-25T01:57:25.991Z,21.45
2019-02-25T01:59:57.322Z,26.45
2019-02-25T02:02:28.717Z,24.80
2019-02-25T02:04:59.998Z,24.60
2019-02-25T02:07:31.429Z,21.87
2019-02-25T02:10:02.939Z,22.55
2019-02-25T02:12:34.333Z,23.83
2019-02-25T02:15:09.312Z,23.35
2019-02-25T02:17:41.906Z,20.82
2019-02-25T02:20:15.269Z,20.55
2019-02-25T02:22:46.527Z,25.32
2019-02-25T02:25:17.925Z,24.98
2019-02-25T02:27:49.324Z,28.87
2019-02-25T02:30:21.695Z,26.90
2019-02-25T02:32:53.063Z,25.97
2019-02-25T02:35:24.444Z,24.37
2019-02-25T02:37:55.868Z,25.35
2019-02-25T02:40:27.362Z,25.08
2019-02-25T02:43:00.464Z,24.82
2019-02-25T02:45:34.996Z,23.75
2019-02-25T02:48:12.289Z,30.82
2019-02-25T02:50:43.745Z,24.12
2019-02-25T02:53:15.116Z,23.67
2019-02-25T02:55:46.496Z,25.65
2019-02-25T02:58:17.925Z,38.78
2019-02-25T03:00:49.285Z,31.95
2019-02-25T03:03:21.619Z,36.03
2019-02-25T03:05:53.181Z,35.17
2019-02-25T03:08:24.518Z,35.57
2019-02-25T03:10:55.915Z,45.48
2019-02-25T03:13:27.344Z,46.25
2019-02-25T03:15:58.802Z,44.15
2019-02-25T03:18:30.329Z,41.60
2019-02-25T03:21:01.695Z,39.88
2019-02-25T03:23:33.071Z,38.40
2019-02-25T03:26:04.527Z,29.57
2019-02-25T03:28:35.884Z,27.80
2019-02-25T03:31:07.346Z,24.30
2019-02-25T03:33:39.073Z,31.27
2019-02-25T03:36:10.520Z,29.02
2019-02-25T03:38:41.999Z,30.97
2019-02-25T03:41:13.722Z,40.35
2019-02-25T03:43:45.042Z,23.87
2019-02-25T03:46:16.432Z,21.77
2019-02-25T03:48:47.931Z,27.48
2019-02-25T03:51:19.291Z,20.77
2019-02-25T03:53:50.690Z,24.23
2019-02-25T03:56:22.156Z,29.12
2019-02-25T03:58:53.590Z,20.10
2019-02-25T04:01:24.976Z,24.95
2019-02-25T04:03:56.380Z,23.62
2019-02-25T04:06:27.716Z,21.90
2019-02-25T04:08:58.995Z,23.62
2019-02-25T04:11:30.400Z,26.07
2019-02-25T04:14:01.820Z,19.62
2019-02-25T04:16:32.958Z,22.17
2019-02-25T04:19:04.319Z,21.23
2019-02-25T04:21:35.594Z,17.70
2019-02-25T04:24:06.853Z,19.45
2019-02-25T04:26:38.163Z,19.60
2019-02-25T04:29:09.515Z,27.05
2019-02-25T04:31:40.816Z,16.17
2019-02-25T04:34:12.132Z,20.92
2019-02-25T04:36:44.463Z,16.37
2019-02-25T04:39:15.724Z,17.60
2019-02-25T04:41:48.312Z,18.45
2019-02-25T04:44:19.653Z,19.95
2019-02-25T04:46:50.866Z,24.87
2019-02-25T04:49:22.346Z,18.42
2019-02-25T04:51:53.649Z,20.65
2019-02-25T04:54:25.135Z,22.75
2019-02-25T04:56:56.388Z,24.40
2019-02-25T04:59:27.714Z,21.23
2019-02-25T05:01:59.060Z,22.80
2019-02-25T05:04:30.407Z,26.33
2019-02-25T05:07:01.805Z,23.15
2019-02-25T05:09:33.145Z,19.62
2019-02-25T05:12:04.466Z,21.17
2019-02-25T05:14:35.656Z,16.60
2019-02-25T05:17:07.986Z,31.23
2019-02-25T05:19:39.290Z,20.92
2019-02-25T05:22:10.561Z,25.80
2019-02-25T05:24:42.933Z,19.87
2019-02-25T05:27:14.469Z,25.10
2019-02-25T05:29:45.849Z,24.40
2019-02-25T05:32:17.194Z,20.40
2019-02-25T05:34:48.782Z,18.57
2019-02-25T05:37:20.063Z,43.55
2019-02-25T05:39:51.386Z,23.90
2019-02-25T05:42:23.335Z,24.60
2019-02-25T05:44:55.201Z,29.72
2019-02-25T05:47:26.895Z,24.98
2019-02-25T05:49:58.230Z,19.20
2019-02-25T05:52:29.645Z,23.42
2019-02-25T05:55:00.993Z,26.57
2019-02-25T05:57:33.540Z,28.10
2019-02-25T06:00:08.169Z,33.95
2019-02-25T06:02:39.681Z,26.57
2019-02-25T06:05:11.055Z,28.92
2019-02-25T06:07:42.525Z,32.40
2019-02-25T06:10:14.427Z,36.23
2019-02-25T06:12:45.822Z,20.32
2019-02-25T06:15:19.493Z,22.22
2019-02-25T06:17:51.354Z,36.68
2019-02-25T06:20:22.683Z,26.30
2019-02-25T06:22:54.136Z,27.25
2019-02-25T06:25:25.533Z,37.42
2019-02-25T06:27:57.030Z,23.90
2019-02-25T06:30:28.566Z,23.38
2019-02-25T06:33:00.023Z,24.35
2019-02-25T06:35:31.428Z,23.35
2019-02-25T06:38:03.025Z,21.12
2019-02-25T06:40:34.453Z,30.65
2019-02-25T06:43:05.972Z,23.45
2019-02-25T06:45:37.766Z,26.77
2019-02-25T06:48:09.205Z,25.92
2019-02-25T06:50:40.700Z,25.57
2019-02-25T06:53:12.127Z,28.45
2019-02-25T06:55:43.572Z,28.25
2019-02-25T06:58:15.214Z,19.77
2019-02-25T07:00:46.627Z,33.00
2019-02-25T07:03:18.092Z,24.63
2019-02-25T07:05:51.016Z,24.47
2019-02-25T07:08:27.088Z,39.53
2019-02-25T07:11:03.016Z,27.30
2019-02-25T07:13:37.113Z,30.00
2019-02-25T07:16:10.051Z,26.52
2019-02-25T07:18:59.528Z,27.73
2019-02-25T07:21:44.775Z,26.27
2019-02-25T07:24:17.838Z,33.90
2019-02-25T07:27:07.205Z,27.48
2019-02-25T07:29:43.208Z,32.73
2019-02-25T07:32:30.106Z,41.23
2019-02-25T07:35:11.844Z,31.52
2019-02-25T07:37:53.840Z,32.75
2019-02-25T07:40:26.777Z,25.60
2019-02-25T07:43:08.742Z,34.10
2019-02-25T07:45:43.282Z,30.65
2019-02-25T07:48:16.405Z,36.40
2019-02-25T07:50:55.151Z,36.28
2019-02-25T07:53:28.172Z,30.27
2019-02-25T07:56:06.223Z,37.88
2019-02-25T07:58:49.163Z,33.63
2019-02-25T08:03:57.342Z,31.85
2019-02-25T08:06:39.695Z,29.00
2019-02-25T08:09:15.708Z,32.37
2019-02-25T08:11:51.793Z,27.35
2019-02-25T08:14:30.715Z,30.85
2019-02-25T08:17:04.653Z,27.70
2019-02-25T08:19:40.855Z,33.02
2019-02-25T08:22:28.933Z,38.38
2019-02-25T08:25:18.870Z,31.35
2019-02-25T08:27:51.863Z,21.80
2019-02-25T08:30:39.885Z,29.70
2019-02-25T08:33:15.838Z,29.18
2019-02-25T08:36:09.868Z,26.40
2019-02-25T08:38:59.182Z,31.45
2019-02-25T08:41:36.254Z,28.32
2019-02-25T08:44:18.057Z,24.98
2019-02-25T08:46:57.094Z,24.80
2019-02-25T08:49:29.899Z,26.30
2019-02-25T08:52:01.317Z,36.65
2019-02-25T08:54:32.672Z,18.25
2019-02-25T08:57:03.997Z,24.98
2019-02-25T08:59:36.865Z,30.62
2019-02-25T09:02:08.403Z,27.67
2019-02-25T09:04:40.245Z,22.83
2019-02-25T09:07:11.772Z,24.37
2019-02-25T09:09:43.219Z,26.00
2019-02-25T09:12:14.897Z,27.22
2019-02-25T09:14:46.237Z,23.92
2019-02-25T09:17:19.311Z,26.75
2019-02-25T09:22:21.238Z,26.48
2019-02-25T09:24:52.706Z,26.30
2019-02-25T09:27:24.286Z,26.48
2019-02-25T09:29:55.697Z,25.48
2019-02-25T09:32:29.711Z,31.02
2019-02-25T09:35:01.165Z,20.85
2019-02-25T09:37:32.610Z,24.98
2019-02-25T09:40:08.344Z,20.72
2019-02-25T09:42:39.694Z,28.98
2019-02-25T09:45:17.920Z,27.70
2019-02-25T09:47:49.369Z,27.13
2019-02-25T09:50:22.579Z,28.32
2019-02-25T09:52:53.929Z,27.02
2019-02-25T09:55:25.416Z,28.17
2019-02-25T09:57:56.868Z,29.70
2019-02-25T10:00:28.232Z,33.95
2019-02-25T10:03:01.468Z,26.62
2019-02-25T10:05:33.849Z,33.85
2019-02-25T10:08:05.353Z,27.75
2019-02-25T10:10:36.889Z,31.60
2019-02-25T10:13:08.301Z,37.25
2019-02-25T10:15:39.867Z,30.77
2019-02-25T10:18:13.358Z,32.15
2019-02-25T10:20:44.926Z,25.40
2019-02-25T10:23:16.502Z,37.58
2019-02-25T10:25:47.891Z,31.85
2019-02-25T10:28:19.344Z,38.73
2019-02-25T10:30:53.115Z,28.87
2019-02-25T10:33:25.848Z,28.92
2019-02-25T10:35:57.313Z,28.05
2019-02-25T10:38:29.789Z,33.15
2019-02-25T10:41:02.211Z,32.55
2019-02-25T10:43:39.727Z,40.05
2019-02-25T10:46:13.471Z,39.00
2019-02-25T10:48:44.699Z,35.70
2019-02-25T10:51:16.188Z,36.63
2019-02-25T10:53:49.538Z,33.53
2019-02-25T10:56:26.009Z,28.98
2019-02-25T10:58:58.136Z,29.43
2019-02-25T11:01:30.697Z,33.83
2019-02-25T11:04:02.314Z,31.48
2019-02-25T11:06:35.541Z,32.90
2019-02-25T11:09:25.933Z,32.58
2019-02-25T11:11:59.943Z,25.82
2019-02-25T11:14:31.619Z,36.88
2019-02-25T11:17:07.747Z,34.83
2019-02-25T11:19:39.279Z,39.05
2019-02-25T11:22:12.602Z,29.52
2019-02-25T11:24:49.780Z,36.58
2019-02-25T11:27:20.881Z,33.40
2019-02-25T11:29:52.378Z,30.40
2019-02-25T11:32:25.914Z,26.70
2019-02-25T11:34:56.960Z,28.02
2019-02-25T11:37:28.574Z,32.75
2019-02-25T11:40:03.899Z,33.02
2019-02-25T11:42:34.976Z,31.48
2019-02-25T11:45:20.757Z,32.90
2019-02-25T11:47:52.104Z,31.95
2019-02-25T11:50:23.575Z,31.48
2019-02-25T11:52:54.922Z,30.12
2019-02-25T11:55:26.395Z,30.82
2019-02-25T11:57:57.912Z,34.35
2019-02-25T12:00:30.315Z,33.02
2019-02-25T12:03:01.711Z,29.55
2019-02-25T12:05:33.388Z,32.63
2019-02-25T12:08:04.756Z,30.75
2019-02-25T12:10:36.404Z,38.10
2019-02-25T12:13:17.986Z,29.25
2019-02-25T12:15:55.471Z,29.72
2019-02-25T12:18:28.614Z,33.85
2019-02-25T12:21:03.762Z,29.12
2019-02-25T12:23:39.054Z,37.58
2019-02-25T12:26:11.066Z,29.30
2019-02-25T12:28:42.554Z,35.43
2019-02-25T12:31:13.942Z,40.17
2019-02-25T12:33:45.464Z,35.15
2019-02-25T12:36:16.851Z,29.98
2019-02-25T12:38:48.262Z,34.75
2019-02-25T12:41:19.601Z,32.00
2019-02-25T12:43:50.935Z,34.53
2019-02-25T12:46:22.287Z,31.75
2019-02-25T12:48:53.926Z,33.40
2019-02-25T12:51:25.329Z,33.83
2019-02-25T12:53:56.772Z,31.42
2019-02-25T12:56:28.324Z,35.92
2019-02-25T12:58:59.872Z,36.23
2019-02-25T13:01:31.282Z,38.95
2019-02-25T13:04:02.679Z,32.35
2019-02-25T13:06:36.717Z,35.58
2019-02-25T13:09:11.354Z,33.53
2019-02-25T13:11:44.473Z,40.12
2019-02-25T13:14:15.860Z,40.03
2019-02-25T13:16:47.310Z,45.12
2019-02-25T13:19:18.653Z,45.08
2019-02-25T13:21:51.428Z,41.13
2019-02-25T13:24:22.761Z,40.03
2019-02-25T13:26:54.512Z,43.50
2019-02-25T13:29:26.052Z,41.63
2019-02-25T13:31:57.589Z,46.08
2019-02-25T13:34:29.226Z,42.43
2019-02-25T13:37:00.725Z,43.85
2019-02-25T13:39:35.178Z,39.92
2019-02-25T13:42:06.643Z,45.92
2019-02-25T13:44:38.247Z,35.50
2019-02-25T13:47:09.774Z,47.10
2019-02-25T13:49:41.224Z,45.08
2019-02-25T13:52:13.022Z,44.83
2019-02-25T13:54:44.541Z,49.38
2019-02-25T13:57:16.600Z,46.50
2019-02-25T13:59:48.060Z,44.48
2019-02-25T14:02:19.891Z,36.40
2019-02-25T14:04:51.416Z,38.20
2019-02-25T14:07:23.596Z,50.20
2019-02-25T14:09:56.466Z,43.38
2019-02-25T14:12:28.953Z,44.25
2019-02-25T14:17:32.637Z,36.75
2019-02-25T14:20:07.363Z,41.15
2019-02-25T14:22:38.781Z,45.50
2019-02-25T14:25:12.774Z,51.75
2019-02-25T14:27:46.462Z,48.78
2019-02-25T14:30:20.800Z,47.83
2019-02-25T14:32:53.488Z,54.58
2019-02-25T14:35:29.053Z,51.13
2019-02-25T14:38:07.677Z,47.00
2019-02-25T14:40:39.373Z,56.48
2019-02-25T14:43:12.605Z,52.55
2019-02-25T14:45:45.962Z,50.92
2019-02-25T14:48:20.361Z,50.38
2019-02-25T14:50:48.796Z,57.78
2019-02-25T14:53:20.329Z,57.67
2019-02-25T14:55:53.101Z,55.15
2019-02-25T14:58:24.818Z,52.65
2019-02-25T15:00:56.610Z,62.60
2019-02-25T15:03:29.155Z,58.08
2019-02-25T15:06:01.515Z,54.10
2019-02-25T15:08:33.048Z,59.13
2019-02-25T15:11:06.604Z,61.55
2019-02-25T15:13:39.110Z,57.17
2019-02-25T15:18:41.536Z,61.20
2019-02-25T15:21:15.686Z,54.38
2019-02-25T15:23:46.059Z,52.48
2019-02-25T15:26:19.857Z,65.87
2019-02-25T15:28:53.687Z,59.48
2019-02-25T15:31:24.189Z,63.45
2019-02-25T15:33:55.732Z,68.22
2019-02-25T15:36:28.962Z,73.60
2019-02-25T15:39:00.790Z,70.05
2019-02-25T15:44:04.891Z,57.65
2019-02-25T15:46:37.250Z,62.15
2019-02-25T15:49:08.693Z,59.95
2019-02-25T15:51:41.576Z,64.15
2019-02-25T15:54:13.305Z,68.25
2019-02-25T15:56:44.802Z,71.57
2019-02-25T15:59:16.263Z,70.10
2019-02-25T16:01:47.895Z,65.15
2019-02-25T16:04:19.473Z,59.63
2019-02-25T16:06:57.425Z,69.30
2019-02-25T16:09:27.701Z,77.22
2019-02-25T16:12:00.993Z,70.08
2019-02-25T16:14:33.362Z,70.30
2019-02-25T16:17:04.850Z,73.70
2019-02-25T16:19:41.315Z,66.72
2019-02-25T16:22:11.379Z,65.78
2019-02-25T16:24:43.688Z,58.87
2019-02-25T16:27:16.794Z,62.48
2019-02-25T16:29:48.447Z,56.63
2019-02-25T16:32:21.503Z,56.45
2019-02-25T16:34:55.577Z,58.65
2019-02-25T16:37:29.113Z,52.33
2019-02-25T16:40:03.120Z,58.15
2019-02-25T16:42:34.767Z,60.20
2019-02-25T16:45:11.805Z,57.90
2019-02-25T16:47:46.046Z,63.45
2019-02-25T16:52:51.027Z,69.05
2019-02-25T16:55:27.700Z,76.05
2019-02-25T16:58:01.815Z,63.95
2019-02-25T17:00:35.444Z,67.20
2019-02-25T17:03:08.225Z,54.75
2019-02-25T17:05:42.310Z,55.75
2019-02-25T17:08:14.880Z,56.95
2019-02-25T17:13:17.142Z,49.65
2019-02-25T17:15:48.711Z,51.97
2019-02-25T17:18:22.893Z,48.23
2019-02-25T17:20:53.521Z,50.78
2019-02-25T17:23:27.460Z,53.17
2019-02-25T17:25:59.261Z,61.73
2019-02-25T17:28:30.863Z,54.83
2019-02-25T17:31:02.345Z,71.45
2019-02-25T17:33:34.952Z,61.88
2019-02-25T17:36:07.660Z,61.85
2019-02-25T17:38:41.114Z,56.02
2019-02-25T17:41:13.512Z,50.73
2019-02-25T17:43:45.051Z,49.13
2019-02-25T17:46:17.228Z,51.18
2019-02-25T17:48:48.600Z,64.95
2019-02-25T17:51:20.836Z,58.98
2019-02-25T17:53:54.714Z,58.83
2019-02-25T17:56:26.947Z,61.13
2019-02-25T17:59:01.019Z,60.78
2019-02-25T18:01:33.536Z,53.63
2019-02-25T18:04:06.663Z,52.67
2019-02-25T18:06:41.379Z,47.35
2019-02-25T18:09:14.250Z,59.60
2019-02-25T18:11:47.695Z,56.30
2019-02-25T18:14:19.792Z,53.38
2019-02-25T18:16:51.453Z,60.52
2019-02-25T18:19:24.893Z,67.20
2019-02-25T18:21:58.311Z,70.05
2019-02-25T18:24:32.398Z,66.15
2019-02-25T18:27:04.416Z,65.92
2019-02-25T18:32:08.458Z,65.97
2019-02-25T18:34:40.686Z,62.90
2019-02-25T18:37:13.473Z,66.82
2019-02-25T18:39:45.663Z,73.15
2019-02-25T18:44:51.355Z,68.33
2019-02-25T18:47:25.200Z,80.70
2019-02-25T18:49:57.142Z,76.17
2019-02-25T18:52:31.506Z,93.65
2019-02-25T18:55:04.375Z,99.60
2019-02-25T18:57:35.638Z,106.20
2019-02-25T19:00:10.573Z,119.75
2019-02-25T19:02:42.738Z,107.47
2019-02-25T19:05:14.581Z,131.40
2019-02-25T19:07:48.821Z,119.00
2019-02-25T19:10:21.022Z,122.98
2019-02-25T19:12:56.356Z,128.53
2019-02-25T19:15:28.393Z,116.53
2019-02-25T19:18:00.129Z,124.92
2019-02-25T19:20:31.767Z,120.67
2019-02-25T19:23:05.756Z,115.08
2019-02-25T19:25:37.063Z,124.10
2019-02-25T19:28:08.605Z,113.27
2019-02-25T19:30:39.982Z,102.53
2019-02-25T19:33:11.732Z,105.60
2019-02-25T19:35:43.331Z,95.97
2019-02-25T19:38:15.860Z,95.22
2019-02-25T19:40:51.217Z,99.65
2019-02-25T19:43:21.638Z,92.80
2019-02-25T19:45:52.960Z,102.80
2019-02-25T19:48:28.222Z,87.67
2019-02-25T19:50:59.042Z,88.95
2019-02-25T19:56:02.508Z,92.97
2019-02-25T19:58:35.873Z,84.30
2019-02-25T20:01:09.004Z,87.45
2019-02-25T20:03:42.506Z,88.27
2019-02-25T20:06:16.245Z,85.42
2019-02-25T20:08:48.664Z,83.72
2019-02-25T20:11:20.631Z,82.97
2019-02-25T20:13:51.995Z,84.28
2019-02-25T20:16:25.980Z,95.80
2019-02-25T20:21:30.507Z,75.67
2019-02-25T20:24:01.759Z,73.55
2019-02-25T20:26:33.266Z,77.55
2019-02-25T20:29:06.257Z,75.25
2019-02-25T20:31:37.630Z,84.07
2019-02-25T20:34:08.892Z,74.15
2019-02-25T20:36:40.648Z,77.97
2019-02-25T20:39:11.882Z,56.48
2019-02-25T20:41:45.804Z,65.12
2019-02-25T20:44:18.579Z,56.88
2019-02-25T20:46:52.684Z,60.48
2019-02-25T20:49:24.929Z,68.00
2019-02-25T20:51:56.696Z,65.35
2019-02-25T20:54:28.808Z,63.48
2019-02-25T20:57:00.414Z,68.70
2019-02-25T20:59:33.119Z,64.42
2019-02-25T21:02:07.462Z,64.80
2019-02-25T21:04:38.717Z,64.77
2019-02-25T21:07:11.505Z,64.53
2019-02-25T21:09:44.088Z,62.40
2019-02-25T21:12:17.675Z,59.08
2019-02-25T21:14:48.482Z,65.90
2019-02-25T21:17:19.761Z,65.55
2019-02-25T21:19:50.939Z,65.40
2019-02-25T21:22:23.350Z,62.58
2019-02-25T21:24:55.890Z,67.05
2019-02-25T21:30:01.574Z,64.92
2019-02-25T21:32:34.244Z,60.92
2019-02-25T21:35:09.024Z,64.12
2019-02-25T21:37:43.359Z,63.42
2019-02-25T21:40:15.376Z,67.22
2019-02-25T21:42:49.297Z,60.15
2019-02-25T21:45:20.616Z,70.32
2019-02-25T21:47:54.601Z,67.50
2019-02-25T21:50:28.382Z,69.97
2019-02-25T21:55:31.001Z,70.08
2019-02-25T22:00:37.483Z,61.70
2019-02-25T22:03:10.268Z,57.30
2019-02-25T22:05:40.808Z,69.07
2019-02-25T22:08:12.216Z,64.58
2019-02-25T22:10:44.145Z,65.57
2019-02-25T22:13:18.352Z,65.60
2019-02-25T22:15:50.649Z,66.25
2019-02-25T22:18:21.984Z,61.15
2019-02-25T22:20:53.552Z,70.20
2019-02-25T22:23:26.148Z,62.40
2019-02-25T22:25:58.226Z,67.32
2019-02-25T22:28:30.526Z,74.20
2019-02-25T22:31:02.429Z,69.35
2019-02-25T22:33:33.619Z,67.03
2019-02-25T22:36:05.114Z,70.62
2019-02-25T22:38:36.633Z,69.87
2019-02-25T22:41:07.992Z,73.60
2019-02-25T22:43:41.320Z,71.22
2019-02-25T22:46:12.474Z,69.12
2019-02-25T22:48:45.556Z,70.37
2019-02-25T22:53:50.322Z,64.45
2019-02-25T22:56:23.718Z,75.80
2019-02-25T22:58:56.592Z,73.15
2019-02-25T23:01:28.337Z,83.50
2019-02-25T23:03:59.678Z,71.42
2019-02-25T23:06:31.134Z,69.65
2019-02-25T23:09:02.692Z,69.32
2019-02-25T23:11:35.701Z,76.22
2019-02-25T23:14:07.765Z,77.92
2019-02-25T23:16:41.588Z,74.42
2019-02-25T23:21:45.099Z,59.85
2019-02-25T23:24:16.310Z,62.98
2019-02-25T23:26:48.667Z,68.50
2019-02-25T23:31:52.685Z,79.32
2019-02-25T23:34:23.898Z,77.80
2019-02-25T23:36:56.237Z,72.65
2019-02-25T23:39:27.795Z,78.17
2019-02-25T23:42:00.610Z,82.85
2019-02-25T23:44:32.149Z,77.17
2019-02-25T23:47:04.438Z,71.97
2019-02-25T23:52:08.500Z,84.13
2019-02-25T23:54:43.352Z,74.27
2019-02-25T23:59:47.058Z,76.47
